sensor_id;sensor_type;location;lat;lon;timestamp;pressure;altitude;pressure_sealevel;temperature;humidity
54600;BME280;40500;51.084;16.958;2023-04-23T00:00:36;99815.16;;;9.96;100.00
54600;BME280;40500;51.084;16.958;2023-04-23T00:03:08;99809.14;;;9.92;100.00
54600;BME280;40500;51.084;16.958;2023-04-23T00:05:41;99810.45;;;9.87;100.00
54600;BME280;40500;51.084;16.958;2023-04-23T00:08:13;99807.25;;;9.82;100.00
54600;BME280;40500;51.084;16.958;2023-04-23T00:10:45;99808.12;;;9.75;100.00
54600;BME280;40500;51.084;16.958;2023-04-23T00:13:16;99806.33;;;9.68;100.00
54600;BME280;40500;51.084;16.958;2023-04-23T00:15:48;99803.45;;;9.64;100.00
54600;BME280;40500;51.084;16.958;2023-04-23T00:18:19;99800.44;;;9.58;100.00
54600;BME280;40500;51.084;16.958;2023-04-23T00:20:49;99797.30;;;9.49;100.00
54600;BME280;40500;51.084;16.958;2023-04-23T00:23:20;99793.61;;;9.42;100.00
54600;BME280;40500;51.084;16.958;2023-04-23T00:25:50;99797.21;;;9.37;100.00
54600;BME280;40500;51.084;16.958;2023-04-23T00:28:20;99793.98;;;9.32;100.00
54600;BME280;40500;51.084;16.958;2023-04-23T00:30:51;99792.88;;;9.26;100.00
54600;BME280;40500;51.084;16.958;2023-04-23T00:33:21;99794.02;;;9.22;100.00
54600;BME280;40500;51.084;16.958;2023-04-23T00:35:52;99794.64;;;9.18;100.00
54600;BME280;40500;51.084;16.958;2023-04-23T00:38:22;99791.73;;;9.14;100.00
54600;BME280;40500;51.084;16.958;2023-04-23T00:40:54;99788.98;;;9.11;100.00
54600;BME280;40500;51.084;16.958;2023-04-23T00:43:24;99785.17;;;9.10;100.00
54600;BME280;40500;51.084;16.958;2023-04-23T00:45:55;99789.70;;;9.11;100.00
54600;BME280;40500;51.084;16.958;2023-04-23T00:48:26;99781.84;;;9.11;100.00
54600;BME280;40500;51.084;16.958;2023-04-23T00:51:01;99783.06;;;9.11;100.00
54600;BME280;40500;51.084;16.958;2023-04-23T00:53:32;99781.67;;;9.11;100.00
54600;BME280;40500;51.084;16.958;2023-04-23T00:56:04;99784.63;;;9.11;100.00
54600;BME280;40500;51.084;16.958;2023-04-23T00:58:35;99781.52;;;9.09;100.00
54600;BME280;40500;51.084;16.958;2023-04-23T01:01:06;99775.07;;;9.08;100.00
54600;BME280;40500;51.084;16.958;2023-04-23T01:03:38;99774.89;;;9.08;100.00
54600;BME280;40500;51.084;16.958;2023-04-23T01:06:10;99775.27;;;9.07;100.00
54600;BME280;40500;51.084;16.958;2023-04-23T01:08:41;99784.73;;;9.05;100.00
54600;BME280;40500;51.084;16.958;2023-04-23T01:11:13;99781.82;;;9.03;100.00
54600;BME280;40500;51.084;16.958;2023-04-23T01:13:44;99780.11;;;9.00;100.00
54600;BME280;40500;51.084;16.958;2023-04-23T01:16:14;99781.36;;;9.00;100.00
54600;BME280;40500;51.084;16.958;2023-04-23T01:18:44;99781.55;;;8.99;100.00
54600;BME280;40500;51.084;16.958;2023-04-23T01:21:15;99781.38;;;8.99;100.00
54600;BME280;40500;51.084;16.958;2023-04-23T01:23:46;99779.98;;;8.98;100.00
54600;BME280;40500;51.084;16.958;2023-04-23T01:26:16;99777.70;;;8.98;100.00
54600;BME280;40500;51.084;16.958;2023-04-23T01:28:47;99777.89;;;8.98;100.00
54600;BME280;40500;51.084;16.958;2023-04-23T01:31:19;99775.95;;;8.99;100.00
54600;BME280;40500;51.084;16.958;2023-04-23T01:33:50;99772.11;;;8.99;100.00
54600;BME280;40500;51.084;16.958;2023-04-23T01:36:24;99771.08;;;8.99;100.00
54600;BME280;40500;51.084;16.958;2023-04-23T01:38:55;99771.42;;;8.98;100.00
54600;BME280;40500;51.084;16.958;2023-04-23T01:41:26;99770.59;;;8.97;100.00
54600;BME280;40500;51.084;16.958;2023-04-23T01:43:57;99765.52;;;8.97;100.00
54600;BME280;40500;51.084;16.958;2023-04-23T01:46:28;99770.95;;;8.96;100.00
54600;BME280;40500;51.084;16.958;2023-04-23T01:48:59;99764.35;;;8.94;100.00
54600;BME280;40500;51.084;16.958;2023-04-23T01:51:31;99762.12;;;8.93;100.00
54600;BME280;40500;51.084;16.958;2023-04-23T01:54:01;99761.07;;;8.93;100.00
54600;BME280;40500;51.084;16.958;2023-04-23T01:56:32;99756.73;;;8.90;100.00
54600;BME280;40500;51.084;16.958;2023-04-23T01:59:04;99757.42;;;8.91;100.00
54600;BME280;40500;51.084;16.958;2023-04-23T02:01:43;99760.27;;;8.89;100.00
54600;BME280;40500;51.084;16.958;2023-04-23T02:04:15;99761.53;;;8.86;100.00
54600;BME280;40500;51.084;16.958;2023-04-23T02:06:49;99756.02;;;8.83;100.00
54600;BME280;40500;51.084;16.958;2023-04-23T02:09:19;99756.93;;;8.80;100.00
54600;BME280;40500;51.084;16.958;2023-04-23T02:11:50;99753.30;;;8.79;100.00
54600;BME280;40500;51.084;16.958;2023-04-23T02:14:20;99751.42;;;8.77;100.00
54600;BME280;40500;51.084;16.958;2023-04-23T02:16:51;99747.25;;;8.76;100.00
54600;BME280;40500;51.084;16.958;2023-04-23T02:19:22;99747.30;;;8.73;100.00
54600;BME280;40500;51.084;16.958;2023-04-23T02:21:52;99746.45;;;8.71;100.00
54600;BME280;40500;51.084;16.958;2023-04-23T02:24:23;99747.89;;;8.69;100.00
54600;BME280;40500;51.084;16.958;2023-04-23T02:26:53;99745.84;;;8.67;100.00
54600;BME280;40500;51.084;16.958;2023-04-23T02:29:25;99743.42;;;8.66;100.00
54600;BME280;40500;51.084;16.958;2023-04-23T02:31:55;99741.02;;;8.63;100.00
54600;BME280;40500;51.084;16.958;2023-04-23T02:34:26;99741.42;;;8.59;100.00
54600;BME280;40500;51.084;16.958;2023-04-23T02:36:56;99741.85;;;8.56;100.00
54600;BME280;40500;51.084;16.958;2023-04-23T02:39:27;99740.14;;;8.54;100.00
54600;BME280;40500;51.084;16.958;2023-04-23T02:41:58;99734.75;;;8.53;100.00
54600;BME280;40500;51.084;16.958;2023-04-23T02:44:30;99736.67;;;8.52;100.00
54600;BME280;40500;51.084;16.958;2023-04-23T02:47:00;99737.06;;;8.50;100.00
54600;BME280;40500;51.084;16.958;2023-04-23T02:49:31;99739.55;;;8.49;100.00
54600;BME280;40500;51.084;16.958;2023-04-23T02:52:02;99740.80;;;8.47;100.00
54600;BME280;40500;51.084;16.958;2023-04-23T02:54:32;99737.67;;;8.46;100.00
54600;BME280;40500;51.084;16.958;2023-04-23T02:57:05;99736.30;;;8.45;100.00
54600;BME280;40500;51.084;16.958;2023-04-23T02:59:36;99741.36;;;8.44;100.00
54600;BME280;40500;51.084;16.958;2023-04-23T03:02:06;99741.73;;;8.43;100.00
54600;BME280;40500;51.084;16.958;2023-04-23T03:04:37;99741.76;;;8.42;100.00
54600;BME280;40500;51.084;16.958;2023-04-23T03:07:08;99739.86;;;8.39;100.00
54600;BME280;40500;51.084;16.958;2023-04-23T03:09:41;99739.36;;;8.38;100.00
54600;BME280;40500;51.084;16.958;2023-04-23T03:12:11;99742.35;;;8.36;100.00
54600;BME280;40500;51.084;16.958;2023-04-23T03:14:42;99741.69;;;8.34;100.00
54600;BME280;40500;51.084;16.958;2023-04-23T03:17:12;99741.20;;;8.32;100.00
54600;BME280;40500;51.084;16.958;2023-04-23T03:19:43;99739.48;;;8.30;100.00
54600;BME280;40500;51.084;16.958;2023-04-23T03:22:14;99734.46;;;8.27;100.00
54600;BME280;40500;51.084;16.958;2023-04-23T03:24:44;99734.85;;;8.25;100.00
54600;BME280;40500;51.084;16.958;2023-04-23T03:27:16;99738.39;;;8.23;100.00
54600;BME280;40500;51.084;16.958;2023-04-23T03:29:47;99737.02;;;8.21;100.00
54600;BME280;40500;51.084;16.958;2023-04-23T03:32:17;99736.20;;;8.17;100.00
54600;BME280;40500;51.084;16.958;2023-04-23T03:34:48;99738.01;;;8.15;100.00
54600;BME280;40500;51.084;16.958;2023-04-23T03:37:18;99740.83;;;8.13;100.00
54600;BME280;40500;51.084;16.958;2023-04-23T03:39:49;99736.86;;;8.10;100.00
54600;BME280;40500;51.084;16.958;2023-04-23T03:42:20;99738.13;;;8.07;100.00
54600;BME280;40500;51.084;16.958;2023-04-23T03:44:50;99742.00;;;8.06;100.00
54600;BME280;40500;51.084;16.958;2023-04-23T03:47:22;99742.02;;;8.04;100.00
54600;BME280;40500;51.084;16.958;2023-04-23T03:49:53;99743.61;;;8.03;100.00
54600;BME280;40500;51.084;16.958;2023-04-23T03:52:24;99744.67;;;8.01;100.00
54600;BME280;40500;51.084;16.958;2023-04-23T03:54:55;99741.39;;;8.00;100.00
54600;BME280;40500;51.084;16.958;2023-04-23T03:57:31;99739.30;;;8.00;100.00
54600;BME280;40500;51.084;16.958;2023-04-23T04:00:19;99735.64;;;8.00;100.00
54600;BME280;40500;51.084;16.958;2023-04-23T04:02:50;99732.16;;;7.99;100.00
54600;BME280;40500;51.084;16.958;2023-04-23T04:05:22;99733.55;;;8.00;100.00
54600;BME280;40500;51.084;16.958;2023-04-23T04:07:55;99731.29;;;8.00;100.00
54600;BME280;40500;51.084;16.958;2023-04-23T04:10:27;99732.33;;;8.00;100.00
54600;BME280;40500;51.084;16.958;2023-04-23T04:12:57;99733.16;;;8.02;100.00
54600;BME280;40500;51.084;16.958;2023-04-23T04:15:27;99735.21;;;8.04;100.00
54600;BME280;40500;51.084;16.958;2023-04-23T04:17:58;99735.88;;;8.06;100.00
54600;BME280;40500;51.084;16.958;2023-04-23T04:20:29;99739.84;;;8.09;100.00
54600;BME280;40500;51.084;16.958;2023-04-23T04:22:59;99740.16;;;8.10;100.00
54600;BME280;40500;51.084;16.958;2023-04-23T04:25:30;99733.28;;;8.15;100.00
54600;BME280;40500;51.084;16.958;2023-04-23T04:28:01;99730.08;;;8.19;100.00
54600;BME280;40500;51.084;16.958;2023-04-23T04:30:31;99729.48;;;8.23;100.00
54600;BME280;40500;51.084;16.958;2023-04-23T04:33:02;99730.77;;;8.29;100.00
54600;BME280;40500;51.084;16.958;2023-04-23T04:35:32;99725.10;;;8.35;100.00
54600;BME280;40500;51.084;16.958;2023-04-23T04:38:03;99725.54;;;8.39;100.00
54600;BME280;40500;51.084;16.958;2023-04-23T04:40:33;99724.11;;;8.43;100.00
54600;BME280;40500;51.084;16.958;2023-04-23T04:43:04;99723.85;;;8.48;100.00
54600;BME280;40500;51.084;16.958;2023-04-23T04:45:34;99723.06;;;8.53;100.00
54600;BME280;40500;51.084;16.958;2023-04-23T04:48:05;99721.37;;;8.60;100.00
54600;BME280;40500;51.084;16.958;2023-04-23T04:50:35;99725.55;;;8.68;100.00
54600;BME280;40500;51.084;16.958;2023-04-23T04:53:06;99725.08;;;8.76;100.00
54600;BME280;40500;51.084;16.958;2023-04-23T04:55:36;99727.36;;;8.84;100.00
54600;BME280;40500;51.084;16.958;2023-04-23T04:58:06;99719.60;;;8.87;100.00
54600;BME280;40500;51.084;16.958;2023-04-23T05:00:37;99724.20;;;8.94;100.00
54600;BME280;40500;51.084;16.958;2023-04-23T05:03:07;99721.98;;;9.00;100.00
54600;BME280;40500;51.084;16.958;2023-04-23T05:05:42;99717.69;;;9.04;100.00
54600;BME280;40500;51.084;16.958;2023-04-23T05:08:13;99716.37;;;9.09;100.00
54600;BME280;40500;51.084;16.958;2023-04-23T05:10:45;99716.72;;;9.18;100.00
54600;BME280;40500;51.084;16.958;2023-04-23T05:13:15;99712.87;;;9.26;100.00
54600;BME280;40500;51.084;16.958;2023-04-23T05:15:46;99709.55;;;9.34;100.00
54600;BME280;40500;51.084;16.958;2023-04-23T05:18:16;99713.00;;;9.44;100.00
54600;BME280;40500;51.084;16.958;2023-04-23T05:20:47;99706.85;;;9.68;100.00
54600;BME280;40500;51.084;16.958;2023-04-23T05:23:17;99705.50;;;10.45;100.00
54600;BME280;40500;51.084;16.958;2023-04-23T05:25:47;99700.25;;;11.08;100.00
54600;BME280;40500;51.084;16.958;2023-04-23T05:28:22;99698.80;;;11.21;100.00
54600;BME280;40500;51.084;16.958;2023-04-23T05:30:52;99697.48;;;11.53;100.00
54600;BME280;40500;51.084;16.958;2023-04-23T05:33:23;99691.80;;;12.06;100.00
54600;BME280;40500;51.084;16.958;2023-04-23T05:36:01;99687.96;;;12.15;100.00
54600;BME280;40500;51.084;16.958;2023-04-23T05:38:31;99688.02;;;12.08;100.00
54600;BME280;40500;51.084;16.958;2023-04-23T05:41:02;99685.73;;;11.87;100.00
54600;BME280;40500;51.084;16.958;2023-04-23T05:43:32;99687.78;;;11.72;100.00
54600;BME280;40500;51.084;16.958;2023-04-23T05:46:02;99692.66;;;11.67;100.00
54600;BME280;40500;51.084;16.958;2023-04-23T05:48:35;99690.30;;;11.64;100.00
54600;BME280;40500;51.084;16.958;2023-04-23T05:51:06;99693.35;;;11.68;100.00
54600;BME280;40500;51.084;16.958;2023-04-23T05:53:36;99690.92;;;11.72;100.00
54600;BME280;40500;51.084;16.958;2023-04-23T05:56:07;99691.52;;;11.76;100.00
54600;BME280;40500;51.084;16.958;2023-04-23T05:58:37;99693.31;;;11.79;100.00
54600;BME280;40500;51.084;16.958;2023-04-23T06:01:08;99689.61;;;11.86;100.00
54600;BME280;40500;51.084;16.958;2023-04-23T06:03:39;99690.61;;;11.94;100.00
54600;BME280;40500;51.084;16.958;2023-04-23T06:06:13;99685.31;;;12.11;100.00
54600;BME280;40500;51.084;16.958;2023-04-23T06:08:44;99685.04;;;12.83;100.00
54600;BME280;40500;51.084;16.958;2023-04-23T06:11:15;99682.17;;;14.03;100.00
54600;BME280;40500;51.084;16.958;2023-04-23T06:13:46;99688.02;;;14.39;100.00
54600;BME280;40500;51.084;16.958;2023-04-23T06:16:16;99692.06;;;14.28;100.00
54600;BME280;40500;51.084;16.958;2023-04-23T06:18:46;99688.40;;;14.14;100.00
54600;BME280;40500;51.084;16.958;2023-04-23T06:21:16;99689.17;;;13.99;100.00
54600;BME280;40500;51.084;16.958;2023-04-23T06:23:48;99690.35;;;13.88;100.00
54600;BME280;40500;51.084;16.958;2023-04-23T06:26:18;99688.43;;;13.83;100.00
54600;BME280;40500;51.084;16.958;2023-04-23T06:28:49;99686.48;;;13.79;100.00
54600;BME280;40500;51.084;16.958;2023-04-23T06:31:37;99681.54;;;13.75;100.00
54600;BME280;40500;51.084;16.958;2023-04-23T06:34:09;99682.63;;;13.79;100.00
54600;BME280;40500;51.084;16.958;2023-04-23T06:36:40;99680.36;;;13.78;100.00
54600;BME280;40500;51.084;16.958;2023-04-23T06:39:11;99679.04;;;13.76;100.00
54600;BME280;40500;51.084;16.958;2023-04-23T06:41:42;99675.82;;;13.82;100.00
54600;BME280;40500;51.084;16.958;2023-04-23T06:44:22;99672.47;;;13.91;100.00
54600;BME280;40500;51.084;16.958;2023-04-23T06:46:53;99672.60;;;14.00;100.00
54600;BME280;40500;51.084;16.958;2023-04-23T06:49:23;99669.10;;;14.12;100.00
54600;BME280;40500;51.084;16.958;2023-04-23T06:51:53;99669.85;;;14.24;100.00
54600;BME280;40500;51.084;16.958;2023-04-23T06:54:26;99664.73;;;14.32;100.00
54600;BME280;40500;51.084;16.958;2023-04-23T06:56:56;99663.35;;;14.40;100.00
54600;BME280;40500;51.084;16.958;2023-04-23T06:59:27;99655.63;;;14.47;100.00
54600;BME280;40500;51.084;16.958;2023-04-23T07:01:58;99657.13;;;14.57;100.00
54600;BME280;40500;51.084;16.958;2023-04-23T07:04:28;99652.31;;;14.71;100.00
54600;BME280;40500;51.084;16.958;2023-04-23T07:06:59;99644.69;;;14.83;100.00
54600;BME280;40500;51.084;16.958;2023-04-23T07:09:30;99643.05;;;15.01;100.00
54600;BME280;40500;51.084;16.958;2023-04-23T07:12:00;99641.37;;;15.14;100.00
54600;BME280;40500;51.084;16.958;2023-04-23T07:14:32;99643.70;;;15.24;100.00
54600;BME280;40500;51.084;16.958;2023-04-23T07:17:02;99644.40;;;15.35;100.00
54600;BME280;40500;51.084;16.958;2023-04-23T07:19:33;99641.61;;;15.50;100.00
54600;BME280;40500;51.084;16.958;2023-04-23T07:22:03;99637.77;;;15.63;100.00
54600;BME280;40500;51.084;16.958;2023-04-23T07:24:33;99633.67;;;15.71;100.00
54600;BME280;40500;51.084;16.958;2023-04-23T07:27:04;99631.66;;;15.80;100.00
54600;BME280;40500;51.084;16.958;2023-04-23T07:32:05;99631.92;;;16.00;100.00
54600;BME280;40500;51.084;16.958;2023-04-23T07:34:35;99627.88;;;16.10;100.00
54600;BME280;40500;51.084;16.958;2023-04-23T07:37:06;99627.36;;;16.20;100.00
54600;BME280;40500;51.084;16.958;2023-04-23T07:39:36;99626.48;;;16.27;100.00
54600;BME280;40500;51.084;16.958;2023-04-23T07:42:09;99622.70;;;16.38;100.00
54600;BME280;40500;51.084;16.958;2023-04-23T07:44:40;99617.56;;;16.49;100.00
54600;BME280;40500;51.084;16.958;2023-04-23T07:47:10;99617.98;;;16.61;100.00
54600;BME280;40500;51.084;16.958;2023-04-23T07:49:41;99620.14;;;16.73;100.00
54600;BME280;40500;51.084;16.958;2023-04-23T07:52:12;99617.73;;;16.86;100.00
54600;BME280;40500;51.084;16.958;2023-04-23T07:54:43;99609.18;;;16.97;100.00
54600;BME280;40500;51.084;16.958;2023-04-23T07:57:14;99610.95;;;17.10;100.00
54600;BME280;40500;51.084;16.958;2023-04-23T07:59:44;99609.38;;;17.22;100.00
54600;BME280;40500;51.084;16.958;2023-04-23T08:02:15;99608.52;;;17.34;100.00
54600;BME280;40500;51.084;16.958;2023-04-23T08:04:46;99606.24;;;17.43;100.00
54600;BME280;40500;51.084;16.958;2023-04-23T08:07:17;99602.77;;;17.54;100.00
54600;BME280;40500;51.084;16.958;2023-04-23T08:09:48;99605.02;;;17.67;100.00
54600;BME280;40500;51.084;16.958;2023-04-23T08:12:19;99606.78;;;17.80;100.00
54600;BME280;40500;51.084;16.958;2023-04-23T08:14:49;99601.48;;;17.89;100.00
54600;BME280;40500;51.084;16.958;2023-04-23T08:17:21;99593.84;;;17.98;100.00
54600;BME280;40500;51.084;16.958;2023-04-23T08:19:52;99598.07;;;18.11;100.00
54600;BME280;40500;51.084;16.958;2023-04-23T08:22:22;99596.89;;;18.25;100.00
54600;BME280;40500;51.084;16.958;2023-04-23T08:24:53;99591.20;;;18.40;100.00
54600;BME280;40500;51.084;16.958;2023-04-23T08:27:23;99588.00;;;18.54;100.00
54600;BME280;40500;51.084;16.958;2023-04-23T08:29:54;99586.31;;;18.67;100.00
54600;BME280;40500;51.084;16.958;2023-04-23T08:32:24;99578.67;;;18.76;100.00
54600;BME280;40500;51.084;16.958;2023-04-23T08:34:55;99577.52;;;18.86;100.00
54600;BME280;40500;51.084;16.958;2023-04-23T08:37:26;99576.40;;;18.95;100.00
54600;BME280;40500;51.084;16.958;2023-04-23T08:40:00;99576.48;;;19.02;100.00
54600;BME280;40500;51.084;16.958;2023-04-23T08:42:39;99575.80;;;19.13;100.00
54600;BME280;40500;51.084;16.958;2023-04-23T08:45:12;99570.12;;;19.27;100.00
54600;BME280;40500;51.084;16.958;2023-04-23T08:47:43;99565.85;;;19.41;100.00
54600;BME280;40500;51.084;16.958;2023-04-23T08:50:15;99566.16;;;19.52;100.00
54600;BME280;40500;51.084;16.958;2023-04-23T08:52:52;99568.75;;;19.66;100.00
54600;BME280;40500;51.084;16.958;2023-04-23T08:55:24;99568.04;;;19.80;100.00
54600;BME280;40500;51.084;16.958;2023-04-23T08:57:58;99561.82;;;19.88;100.00
54600;BME280;40500;51.084;16.958;2023-04-23T09:00:29;99564.48;;;19.99;100.00
54600;BME280;40500;51.084;16.958;2023-04-23T09:03:00;99556.99;;;20.06;100.00
54600;BME280;40500;51.084;16.958;2023-04-23T09:05:32;99557.94;;;20.16;100.00
54600;BME280;40500;51.084;16.958;2023-04-23T09:08:03;99563.88;;;20.26;100.00
54600;BME280;40500;51.084;16.958;2023-04-23T09:10:34;99562.80;;;20.31;100.00
54600;BME280;40500;51.084;16.958;2023-04-23T09:13:06;99563.66;;;20.34;100.00
54600;BME280;40500;51.084;16.958;2023-04-23T09:15:36;99564.63;;;20.38;100.00
54600;BME280;40500;51.084;16.958;2023-04-23T09:18:11;99558.89;;;20.46;100.00
54600;BME280;40500;51.084;16.958;2023-04-23T09:20:42;99559.34;;;20.55;100.00
54600;BME280;40500;51.084;16.958;2023-04-23T09:23:14;99555.45;;;20.70;100.00
54600;BME280;40500;51.084;16.958;2023-04-23T09:25:44;99556.63;;;20.85;100.00
54600;BME280;40500;51.084;16.958;2023-04-23T09:28:15;99553.87;;;20.97;100.00
54600;BME280;40500;51.084;16.958;2023-04-23T09:30:47;99550.73;;;21.11;100.00
54600;BME280;40500;51.084;16.958;2023-04-23T09:33:18;99553.34;;;21.19;100.00
54600;BME280;40500;51.084;16.958;2023-04-23T09:35:48;99548.30;;;21.17;100.00
54600;BME280;40500;51.084;16.958;2023-04-23T09:38:20;99548.89;;;21.16;100.00
54600;BME280;40500;51.084;16.958;2023-04-23T09:40:51;99546.83;;;21.18;100.00
54600;BME280;40500;51.084;16.958;2023-04-23T09:43:22;99547.46;;;21.19;100.00
54600;BME280;40500;51.084;16.958;2023-04-23T09:45:52;99544.10;;;21.21;100.00
54600;BME280;40500;51.084;16.958;2023-04-23T09:48:22;99539.42;;;21.22;100.00
54600;BME280;40500;51.084;16.958;2023-04-23T09:50:55;99543.25;;;21.27;100.00
54600;BME280;40500;51.084;16.958;2023-04-23T09:53:26;99540.80;;;21.29;100.00
54600;BME280;40500;51.084;16.958;2023-04-23T09:55:57;99540.23;;;21.30;100.00
54600;BME280;40500;51.084;16.958;2023-04-23T09:58:27;99542.97;;;21.31;100.00
54600;BME280;40500;51.084;16.958;2023-04-23T10:01:06;99538.23;;;21.30;100.00
54600;BME280;40500;51.084;16.958;2023-04-23T10:03:42;99545.08;;;21.31;100.00
54600;BME280;40500;51.084;16.958;2023-04-23T10:06:15;99542.28;;;21.29;100.00
54600;BME280;40500;51.084;16.958;2023-04-23T10:09:06;99543.06;;;21.23;100.00
54600;BME280;40500;51.084;16.958;2023-04-23T10:11:39;99543.13;;;21.22;100.00
54600;BME280;40500;51.084;16.958;2023-04-23T10:14:10;99546.11;;;21.27;100.00
54600;BME280;40500;51.084;16.958;2023-04-23T10:16:42;99543.75;;;21.32;100.00
54600;BME280;40500;51.084;16.958;2023-04-23T10:19:19;99546.14;;;21.37;100.00
54600;BME280;40500;51.084;16.958;2023-04-23T10:21:54;99544.44;;;21.46;100.00
54600;BME280;40500;51.084;16.958;2023-04-23T10:24:46;99540.78;;;21.51;100.00
54600;BME280;40500;51.084;16.958;2023-04-23T10:27:18;99541.16;;;21.56;100.00
54600;BME280;40500;51.084;16.958;2023-04-23T10:30:11;99541.63;;;21.62;100.00
54600;BME280;40500;51.084;16.958;2023-04-23T10:32:44;99541.67;;;21.61;100.00
54600;BME280;40500;51.084;16.958;2023-04-23T10:35:17;99541.75;;;21.67;100.00
54600;BME280;40500;51.084;16.958;2023-04-23T10:37:48;99538.50;;;21.72;100.00
54600;BME280;40500;51.084;16.958;2023-04-23T10:40:23;99535.12;;;21.80;100.00
54600;BME280;40500;51.084;16.958;2023-04-23T10:42:56;99535.66;;;21.89;100.00
54600;BME280;40500;51.084;16.958;2023-04-23T10:45:30;99534.98;;;21.95;100.00
54600;BME280;40500;51.084;16.958;2023-04-23T10:48:01;99535.88;;;22.02;100.00
54600;BME280;40500;51.084;16.958;2023-04-23T10:50:36;99533.67;;;22.07;100.00
54600;BME280;40500;51.084;16.958;2023-04-23T10:53:31;99539.95;;;22.14;100.00
54600;BME280;40500;51.084;16.958;2023-04-23T10:56:09;99545.61;;;22.19;100.00
54600;BME280;40500;51.084;16.958;2023-04-23T10:58:52;99543.41;;;22.22;100.00
54600;BME280;40500;51.084;16.958;2023-04-23T11:01:24;99537.63;;;22.23;100.00
54600;BME280;40500;51.084;16.958;2023-04-23T11:03:56;99540.02;;;22.29;100.00
54600;BME280;40500;51.084;16.958;2023-04-23T11:06:51;99533.67;;;22.37;100.00
54600;BME280;40500;51.084;16.958;2023-04-23T11:09:40;99535.94;;;22.40;100.00
54600;BME280;40500;51.084;16.958;2023-04-23T11:12:13;99536.36;;;22.46;100.00
54600;BME280;40500;51.084;16.958;2023-04-23T11:15:08;99537.58;;;22.56;100.00
54600;BME280;40500;51.084;16.958;2023-04-23T11:17:59;99535.70;;;22.64;100.00
54600;BME280;40500;51.084;16.958;2023-04-23T11:20:30;99533.03;;;22.77;100.00
54600;BME280;40500;51.084;16.958;2023-04-23T11:23:01;99532.34;;;22.88;100.00
54600;BME280;40500;51.084;16.958;2023-04-23T11:25:31;99532.91;;;22.92;100.00
54600;BME280;40500;51.084;16.958;2023-04-23T11:28:02;99529.04;;;22.91;100.00
54600;BME280;40500;51.084;16.958;2023-04-23T11:30:34;99530.84;;;22.93;100.00
54600;BME280;40500;51.084;16.958;2023-04-23T11:33:05;99531.38;;;22.93;100.00
54600;BME280;40500;51.084;16.958;2023-04-23T11:35:36;99528.42;;;22.92;100.00
54600;BME280;40500;51.084;16.958;2023-04-23T11:38:10;99527.42;;;22.96;100.00
54600;BME280;40500;51.084;16.958;2023-04-23T11:40:40;99528.31;;;23.03;100.00
54600;BME280;40500;51.084;16.958;2023-04-23T11:43:10;99528.71;;;23.06;100.00
54600;BME280;40500;51.084;16.958;2023-04-23T11:45:48;99530.94;;;23.10;100.00
54600;BME280;40500;51.084;16.958;2023-04-23T11:48:19;99532.14;;;23.13;100.00
54600;BME280;40500;51.084;16.958;2023-04-23T11:50:49;99532.17;;;23.14;100.00
54600;BME280;40500;51.084;16.958;2023-04-23T11:53:22;99531.75;;;23.22;100.00
54600;BME280;40500;51.084;16.958;2023-04-23T11:55:53;99529.75;;;23.24;100.00
54600;BME280;40500;51.084;16.958;2023-04-23T11:58:24;99532.86;;;23.23;100.00
54600;BME280;40500;51.084;16.958;2023-04-23T12:00:58;99530.77;;;23.21;100.00
54600;BME280;40500;51.084;16.958;2023-04-23T12:03:30;99535.77;;;23.16;100.00
54600;BME280;40500;51.084;16.958;2023-04-23T12:06:01;99537.35;;;23.10;100.00
54600;BME280;40500;51.084;16.958;2023-04-23T12:08:34;99540.44;;;23.03;100.00
54600;BME280;40500;51.084;16.958;2023-04-23T12:11:06;99543.80;;;22.99;100.00
54600;BME280;40500;51.084;16.958;2023-04-23T12:13:39;99545.79;;;22.94;100.00
54600;BME280;40500;51.084;16.958;2023-04-23T12:16:11;99547.23;;;22.89;100.00
54600;BME280;40500;51.084;16.958;2023-04-23T12:18:42;99553.88;;;22.86;100.00
54600;BME280;40500;51.084;16.958;2023-04-23T12:21:14;99555.70;;;22.80;100.00
54600;BME280;40500;51.084;16.958;2023-04-23T12:23:51;99552.90;;;22.72;100.00
54600;BME280;40500;51.084;16.958;2023-04-23T12:26:23;99558.55;;;22.64;100.00
54600;BME280;40500;51.084;16.958;2023-04-23T12:28:57;99555.50;;;22.60;100.00
54600;BME280;40500;51.084;16.958;2023-04-23T12:31:29;99556.55;;;22.58;100.00
54600;BME280;40500;51.084;16.958;2023-04-23T12:34:02;99559.26;;;22.53;100.00
54600;BME280;40500;51.084;16.958;2023-04-23T12:36:34;99563.78;;;22.56;100.00
54600;BME280;40500;51.084;16.958;2023-04-23T12:39:26;99556.29;;;22.67;100.00
54600;BME280;40500;51.084;16.958;2023-04-23T12:42:00;99565.88;;;22.79;100.00
54600;BME280;40500;51.084;16.958;2023-04-23T12:44:34;99568.56;;;22.77;100.00
54600;BME280;40500;51.084;16.958;2023-04-23T12:47:06;99569.30;;;22.74;100.00
54600;BME280;40500;51.084;16.958;2023-04-23T12:49:38;99570.84;;;22.73;100.00
54600;BME280;40500;51.084;16.958;2023-04-23T12:52:09;99573.48;;;22.71;100.00
54600;BME280;40500;51.084;16.958;2023-04-23T12:54:42;99568.17;;;22.66;100.00
54600;BME280;40500;51.084;16.958;2023-04-23T12:57:13;99572.80;;;22.66;100.00
54600;BME280;40500;51.084;16.958;2023-04-23T12:59:44;99574.31;;;22.72;100.00
54600;BME280;40500;51.084;16.958;2023-04-23T13:02:15;99575.23;;;22.70;100.00
54600;BME280;40500;51.084;16.958;2023-04-23T13:04:46;99580.86;;;22.57;100.00
54600;BME280;40500;51.084;16.958;2023-04-23T13:07:16;99585.22;;;22.37;100.00
54600;BME280;40500;51.084;16.958;2023-04-23T13:09:46;99587.56;;;22.12;100.00